Time;durP1;ratioP1;P1;durP2;ratioP2;P2;SDS_P1;SDS_P2;PMS_P1;PMS_P2;Temp;Humidity;BMP_temperature;BMP_pressure;BME280_temperature;BME280_humidity;BME280_pressure;Samples;Min_cycle;Max_cycle;Signal;HPM_P1;HPM_P2
2021/12/29 00:02:41;;;;;;;12.30;3.93;;;;;9.30;99240.00;;;;5005774;28;20603;-74
2021/12/29 00:05:28;;;;;;;5.57;3.43;;;;;9.40;99245.00;;;;5002362;28;20315;-73
2021/12/29 00:08:14;;;;;;;9.40;3.40;;;;;9.50;99234.00;;;;5003837;28;20230;-71
2021/12/29 00:11:02;;;;;;;9.40;3.63;;;;;9.30;99234.00;;;;5001149;28;20239;-72
2021/12/29 00:13:48;;;;;;;5.70;3.10;;;;;9.30;99250.00;;;;4989441;28;20739;-74
2021/12/29 00:16:35;;;;;;;4.40;2.90;;;;;9.20;99256.00;;;;4991139;28;20688;-74
2021/12/29 00:19:41;;;;;;;9.43;3.67;;;;;9.20;99261.00;;;;4982244;28;21093;-71
2021/12/29 00:22:27;;;;;;;7.43;3.40;;;;;9.30;99262.00;;;;4981510;28;20244;-74
2021/12/29 00:25:14;;;;;;;5.80;3.30;;;;;9.20;99259.00;;;;5011466;28;20223;-74
2021/12/29 00:28:02;;;;;;;5.40;3.40;;;;;9.30;99253.00;;;;5008271;28;20249;-75
2021/12/29 00:30:48;;;;;;;5.13;2.83;;;;;9.30;99259.00;;;;5013656;28;20235;-73
2021/12/29 00:33:35;;;;;;;5.93;3.60;;;;;9.30;99267.00;;;;5017466;28;20282;-74
2021/12/29 00:36:25;;;;;;;6.73;3.67;;;;;9.30;99277.00;;;;5015916;28;20224;-73
2021/12/29 00:39:11;;;;;;;6.43;3.53;;;;;9.40;99289.00;;;;5019610;28;20221;-73
2021/12/29 00:41:58;;;;;;;6.50;3.93;;;;;9.30;99295.00;;;;5010523;28;20220;-74
2021/12/29 00:44:46;;;;;;;11.73;4.23;;;;;9.50;99307.00;;;;5012229;28;20220;-75
2021/12/29 00:47:35;;;;;;;9.13;4.20;;;;;9.50;99299.00;;;;5015914;28;20228;-73
2021/12/29 00:50:21;;;;;;;8.90;4.73;;;;;9.40;99311.00;;;;5029173;28;20238;-75
2021/12/29 00:53:08;;;;;;;8.67;4.37;;;;;9.40;99310.00;;;;5020660;28;20236;-74
2021/12/29 00:55:55;;;;;;;9.23;4.23;;;;;9.30;99326.00;;;;4989609;28;20621;-74
2021/12/29 00:58:44;;;;;;;7.87;4.27;;;;;9.40;99347.00;;;;4986187;28;20294;-74
2021/12/29 01:01:31;;;;;;;11.77;5.13;;;;;9.30;99348.00;;;;4989707;28;21734;-74
2021/12/29 01:04:21;;;;;;;9.23;4.47;;;;;9.40;99347.00;;;;5002287;28;20731;-71
2021/12/29 01:07:08;;;;;;;9.70;4.20;;;;;9.30;99369.00;;;;5010189;28;20256;-74
2021/12/29 01:09:54;;;;;;;7.80;4.47;;;;;9.30;99373.00;;;;5006420;28;20228;-72
2021/12/29 01:12:47;;;;;;;9.30;4.97;;;;;9.40;99384.00;;;;5011413;28;20262;-74
2021/12/29 01:15:48;;;;;;;10.43;5.17;;;;;9.50;99392.00;;;;4986772;28;20242;-72
2021/12/29 01:18:38;;;;;;;7.57;4.73;;;;;9.40;99405.00;;;;4982998;28;20244;-72
2021/12/29 01:21:24;;;;;;;9.10;4.87;;;;;9.40;99407.00;;;;4985789;28;20241;-71
2021/12/29 01:24:12;;;;;;;7.40;4.20;;;;;9.40;99411.00;;;;4988098;28;20252;-74
2021/12/29 01:27:00;;;;;;;7.60;4.40;;;;;9.50;99416.00;;;;4991985;28;20307;-72
2021/12/29 01:29:47;;;;;;;8.57;4.70;;;;;9.40;99429.00;;;;4979752;28;20232;-73
2021/12/29 01:32:33;;;;;;;7.30;4.20;;;;;9.40;99433.00;;;;4984807;28;20252;-73
2021/12/29 01:35:21;;;;;;;7.27;4.27;;;;;9.50;99448.00;;;;4996975;28;20254;-72
2021/12/29 01:38:09;;;;;;;8.03;4.30;;;;;9.40;99457.00;;;;4999628;28;20233;-74
2021/12/29 01:40:57;;;;;;;7.17;4.67;;;;;9.40;99465.00;;;;5008463;28;20251;-73
2021/12/29 01:43:43;;;;;;;8.93;4.63;;;;;9.40;99470.00;;;;5007203;28;20231;-73
2021/12/29 01:46:29;;;;;;;7.40;4.53;;;;;9.30;99485.00;;;;5006160;28;20368;-73
2021/12/29 01:49:16;;;;;;;9.53;5.07;;;;;9.30;99491.00;;;;5006699;28;20239;-74
2021/12/29 01:52:11;;;;;;;9.27;5.10;;;;;9.30;99483.00;;;;4998739;28;20358;-73
2021/12/29 01:54:57;;;;;;;8.10;4.90;;;;;9.40;99494.00;;;;5000103;28;20239;-74
2021/12/29 01:57:47;;;;;;;9.50;5.00;;;;;9.50;99494.00;;;;5005212;28;20232;-74
2021/12/29 02:00:37;;;;;;;8.97;5.60;;;;;9.50;99515.00;;;;5012298;28;20249;-74
2021/12/29 02:03:24;;;;;;;9.63;4.97;;;;;9.50;99515.00;;;;4992281;28;20235;-74
2021/12/29 02:06:10;;;;;;;8.37;4.50;;;;;9.40;99522.00;;;;4987358;28;20311;-71
2021/12/29 02:08:58;;;;;;;8.47;4.50;;;;;9.40;99491.00;;;;4985803;28;20616;-73
2021/12/29 02:11:45;;;;;;;8.87;4.57;;;;;9.30;99521.00;;;;4981965;28;20279;-73
2021/12/29 02:14:32;;;;;;;10.57;5.17;;;;;9.20;99522.00;;;;4991382;28;20244;-74
2021/12/29 02:17:19;;;;;;;7.80;4.87;;;;;9.40;99527.00;;;;5003064;28;20610;-74
2021/12/29 02:20:09;;;;;;;8.00;4.63;;;;;9.40;99534.00;;;;4984779;28;20321;-73
2021/12/29 02:23:11;;;;;;;9.80;4.20;;;;;9.40;99534.00;;;;4982127;28;20255;-73
2021/12/29 02:25:59;;;;;;;8.57;4.30;;;;;9.30;99540.00;;;;4994370;28;20223;-73
2021/12/29 02:28:45;;;;;;;5.23;3.27;;;;;9.30;99532.00;;;;5002144;28;20227;-74
2021/12/29 02:31:33;;;;;;;7.67;3.83;;;;;9.40;99536.00;;;;4997121;28;20248;-74
2021/12/29 02:34:19;;;;;;;5.53;3.43;;;;;9.40;99539.00;;;;4988072;28;20233;-73
2021/12/29 02:37:07;;;;;;;4.40;3.17;;;;;9.40;99548.00;;;;4984585;28;20229;-72
2021/12/29 02:39:57;;;;;;;6.50;3.70;;;;;9.40;99543.00;;;;4990500;28;20236;-74
2021/12/29 02:42:43;;;;;;;5.03;3.20;;;;;9.40;99545.00;;;;4987068;28;20232;-74
2021/12/29 02:45:33;;;;;;;6.23;3.83;;;;;9.40;99565.00;;;;4984280;28;20228;-73
2021/12/29 02:48:23;;;;;;;4.77;3.20;;;;;9.30;99569.00;;;;4983386;28;20232;-73
2021/12/29 02:51:09;;;;;;;6.77;3.50;;;;;9.30;99578.00;;;;4998145;28;20235;-74
2021/12/29 02:53:57;;;;;;;5.50;3.63;;;;;9.30;99575.00;;;;4985038;28;20699;-74
2021/12/29 02:56:47;;;;;;;7.40;3.80;;;;;9.40;99592.00;;;;4994101;28;20717;-74
2021/12/29 02:59:33;;;;;;;6.30;3.73;;;;;9.40;99598.00;;;;4986534;28;20235;-73
2021/12/29 03:02:20;;;;;;;6.73;3.97;;;;;9.50;99591.00;;;;5012075;28;20241;-73
2021/12/29 03:05:09;;;;;;;7.37;4.00;;;;;9.40;99602.00;;;;5009889;28;20244;-74
2021/12/29 03:07:56;;;;;;;7.57;4.03;;;;;9.40;99608.00;;;;5014228;28;20362;-73
2021/12/29 03:10:52;;;;;;;5.63;3.63;;;;;9.40;99610.00;;;;4985359;28;20232;-74
2021/12/29 03:13:40;;;;;;;7.33;4.00;;;;;9.30;99610.00;;;;5009846;28;20234;-74
2021/12/29 03:16:27;;;;;;;7.87;3.87;;;;;9.50;99609.00;;;;4988134;28;20234;-74
2021/12/29 03:19:15;;;;;;;7.20;4.30;;;;;9.50;99612.00;;;;5005984;28;20231;-74
2021/12/29 03:22:01;;;;;;;7.63;4.20;;;;;9.30;99622.00;;;;5003233;28;20246;-74
2021/12/29 03:24:47;;;;;;;9.67;4.37;;;;;9.50;99619.00;;;;4998331;28;20795;-74
2021/12/29 03:27:35;;;;;;;10.23;4.57;;;;;9.30;99624.00;;;;5005207;28;20239;-74
2021/12/29 03:30:21;;;;;;;7.00;4.00;;;;;9.30;99622.00;;;;5005372;28;20235;-72
2021/12/29 03:33:09;;;;;;;8.17;4.40;;;;;9.20;99624.00;;;;5001975;28;20232;-74
2021/12/29 03:36:00;;;;;;;5.40;3.80;;;;;9.40;99626.00;;;;5005604;28;20738;-73
2021/12/29 03:38:49;;;;;;;7.60;4.33;;;;;9.40;99632.00;;;;5001796;28;20226;-73
2021/12/29 03:41:35;;;;;;;8.77;4.13;;;;;9.40;99643.00;;;;5005312;28;20245;-73
2021/12/29 03:44:23;;;;;;;6.37;3.93;;;;;9.30;99650.00;;;;5009044;28;20299;-74
2021/12/29 03:47:09;;;;;;;8.47;3.77;;;;;9.30;99656.00;;;;5022536;28;20741;-74
2021/12/29 03:49:56;;;;;;;9.00;4.67;;;;;9.20;99653.00;;;;5004464;28;20268;-73
2021/12/29 03:52:43;;;;;;;7.13;4.07;;;;;9.40;99656.00;;;;5009213;28;20282;-74
2021/12/29 03:55:29;;;;;;;8.90;4.17;;;;;9.50;99665.00;;;;5015268;28;20731;-73
2021/12/29 03:58:16;;;;;;;7.10;4.23;;;;;9.30;99658.00;;;;5006974;28;20240;-73
2021/12/29 04:01:06;;;;;;;7.70;4.20;;;;;9.40;99673.00;;;;5006959;28;20245;-73
2021/12/29 04:03:52;;;;;;;8.00;4.30;;;;;9.40;99681.00;;;;4988194;28;20236;-74
2021/12/29 04:06:39;;;;;;;9.30;4.70;;;;;9.50;99678.00;;;;5008598;28;20241;-72
2021/12/29 04:09:25;;;;;;;10.33;4.63;;;;;9.30;99694.00;;;;5017457;28;20261;-73
2021/12/29 04:12:11;;;;;;;8.53;4.73;;;;;9.40;99698.00;;;;5008322;28;20278;-73
2021/12/29 04:14:58;;;;;;;8.47;4.63;;;;;9.20;99708.00;;;;5006319;28;20572;-74
2021/12/29 04:17:48;;;;;;;10.93;4.73;;;;;9.30;99711.00;;;;4988213;28;20322;-74
2021/12/29 04:23:39;;;;;;;10.10;5.17;;;;;9.30;99725.00;;;;5012322;28;20235;-72
2021/12/29 04:26:25;;;;;;;10.33;5.73;;;;;9.30;99729.00;;;;4993771;28;20751;-73
2021/12/29 04:29:13;;;;;;;9.37;5.20;;;;;9.30;99722.00;;;;5001128;28;20231;-73
2021/12/29 04:31:59;;;;;;;11.10;5.30;;;;;9.30;99727.00;;;;4983482;28;20235;-73
2021/12/29 04:34:47;;;;;;;10.93;5.87;;;;;9.40;99728.00;;;;4987483;28;20240;-73
2021/12/29 04:37:35;;;;;;;13.77;5.50;;;;;9.30;99740.00;;;;4987682;28;20611;-70
2021/12/29 04:40:23;;;;;;;12.43;5.30;;;;;9.30;99743.00;;;;4984879;28;21064;-73
2021/12/29 04:43:10;;;;;;;9.53;5.03;;;;;9.30;99746.00;;;;5008524;28;20254;-74
2021/12/29 04:45:56;;;;;;;10.57;4.87;;;;;9.30;99745.00;;;;5006775;28;20233;-74
2021/12/29 04:48:49;;;;;;;7.87;4.57;;;;;9.30;99749.00;;;;4987374;28;20261;-74
2021/12/29 04:51:44;;;;;;;9.43;4.03;;;;;9.20;99752.00;;;;4980124;28;20660;-74
2021/12/29 04:54:31;;;;;;;12.50;5.60;;;;;9.30;99762.00;;;;5013078;28;20370;-72
2021/12/29 04:57:17;;;;;;;12.53;6.00;;;;;9.30;99768.00;;;;5018027;28;20235;-74
2021/12/29 05:00:05;;;;;;;14.10;5.70;;;;;9.50;99752.00;;;;5010595;28;20225;-72
2021/12/29 05:02:53;;;;;;;10.90;5.63;;;;;9.30;99770.00;;;;5008820;28;20609;-73
2021/12/29 05:05:52;;;;;;;13.47;6.37;;;;;9.20;99778.00;;;;5015607;28;20234;-74
2021/12/29 05:08:39;;;;;;;11.90;5.90;;;;;9.30;99788.00;;;;5018678;28;20310;-73
2021/12/29 05:11:25;;;;;;;15.00;5.30;;;;;9.20;99774.00;;;;4995105;28;20282;-73
2021/12/29 05:14:12;;;;;;;13.17;5.93;;;;;9.30;99786.00;;;;4983474;28;20239;-73
2021/12/29 05:16:59;;;;;;;11.70;5.30;;;;;9.30;99784.00;;;;4978586;28;20303;-74
2021/12/29 05:19:46;;;;;;;11.07;5.53;;;;;9.30;99795.00;;;;4986478;28;20778;-73
2021/12/29 05:22:32;;;;;;;9.27;5.07;;;;;9.30;99796.00;;;;4987144;28;20254;-73
2021/12/29 05:25:19;;;;;;;11.93;5.47;;;;;9.20;99824.00;;;;5003764;28;20241;-73
2021/12/29 05:28:07;;;;;;;13.90;4.90;;;;;9.20;99821.00;;;;4987850;28;20413;-73
2021/12/29 05:30:54;;;;;;;8.70;5.07;;;;;9.30;99826.00;;;;4993343;28;20269;-73
2021/12/29 05:33:41;;;;;;;11.17;5.23;;;;;9.40;99827.00;;;;5011356;28;20231;-73
2021/12/29 05:36:28;;;;;;;11.63;5.60;;;;;9.40;99838.00;;;;4988402;28;20302;-72
2021/12/29 05:39:14;;;;;;;11.07;5.30;;;;;9.20;99834.00;;;;5013468;28;20765;-73
2021/12/29 05:42:01;;;;;;;12.30;5.43;;;;;9.20;99841.00;;;;4986321;28;20745;-74
2021/12/29 05:44:47;;;;;;;13.87;5.93;;;;;9.20;99841.00;;;;4986562;28;20250;-73
2021/12/29 05:47:34;;;;;;;11.03;5.80;;;;;9.20;99825.00;;;;4985627;28;20231;-73
2021/12/29 05:50:22;;;;;;;15.03;5.70;;;;;9.20;99851.00;;;;4999431;28;20224;-73
2021/12/29 05:53:09;;;;;;;12.67;5.73;;;;;9.20;99852.00;;;;4981343;28;20314;-72
2021/12/29 05:55:55;;;;;;;17.47;6.67;;;;;9.20;99854.00;;;;4975898;28;20591;-74
2021/12/29 05:58:43;;;;;;;15.30;6.23;;;;;9.20;99855.00;;;;4987575;28;20223;-72
2021/12/29 06:01:31;;;;;;;14.57;7.10;;;;;9.20;99859.00;;;;4999426;28;20599;-74
2021/12/29 06:04:17;;;;;;;14.00;6.60;;;;;9.30;99868.00;;;;5012321;28;20247;-73
2021/12/29 06:07:04;;;;;;;13.33;6.90;;;;;9.20;99861.00;;;;5005179;28;20266;-72
2021/12/29 06:09:50;;;;;;;14.87;7.10;;;;;9.30;99863.00;;;;5008073;28;20818;-73
2021/12/29 06:12:37;;;;;;;14.03;7.00;;;;;9.10;99844.00;;;;5015431;28;20723;-73
2021/12/29 06:15:24;;;;;;;15.63;6.70;;;;;9.20;99858.00;;;;5020470;28;20262;-74
2021/12/29 06:18:11;;;;;;;14.73;7.30;;;;;9.10;99868.00;;;;5007074;28;20279;-72
2021/12/29 06:20:58;;;;;;;14.67;7.07;;;;;9.00;99870.00;;;;4984780;28;20239;-72
2021/12/29 06:23:44;;;;;;;16.00;7.13;;;;;9.10;99876.00;;;;4987114;28;20243;-73
2021/12/29 06:26:30;;;;;;;16.97;7.57;;;;;9.20;99858.00;;;;4986366;28;20751;-73
2021/12/29 06:29:17;;;;;;;14.37;7.10;;;;;9.20;99872.00;;;;5010375;28;20234;-73
2021/12/29 06:32:06;;;;;;;16.67;7.27;;;;;9.00;99880.00;;;;5014335;28;20721;-73
2021/12/29 06:34:52;;;;;;;12.67;6.73;;;;;9.00;99887.00;;;;5002435;28;20238;-73
2021/12/29 06:37:39;;;;;;;16.77;7.10;;;;;8.90;99896.00;;;;5013902;28;20311;-73
2021/12/29 06:40:25;;;;;;;16.07;7.40;;;;;9.10;99905.00;;;;4988069;28;20244;-72
2021/12/29 06:43:11;;;;;;;16.37;7.60;;;;;9.10;99913.00;;;;5006444;28;20243;-72
2021/12/29 06:45:58;;;;;;;19.87;7.87;;;;;9.10;99906.00;;;;5004758;28;20270;-72
2021/12/29 06:48:46;;;;;;;17.73;8.13;;;;;9.10;99911.00;;;;4985923;28;20227;-73
2021/12/29 06:51:32;;;;;;;18.53;7.97;;;;;9.00;99917.00;;;;4986234;28;20244;-72
2021/12/29 06:54:19;;;;;;;17.43;8.03;;;;;9.10;99919.00;;;;5012073;28;20233;-73
2021/12/29 06:57:06;;;;;;;15.93;8.60;;;;;9.10;99917.00;;;;5005849;28;20240;-73
2021/12/29 06:59:52;;;;;;;16.87;7.97;;;;;9.00;99926.00;;;;5006717;28;20231;-73
2021/12/29 07:02:38;;;;;;;18.13;8.30;;;;;9.10;99933.00;;;;5009508;28;20242;-74
2021/12/29 07:05:26;;;;;;;19.17;7.90;;;;;9.00;99937.00;;;;4987923;28;20315;-73
2021/12/29 07:08:14;;;;;;;16.13;8.27;;;;;8.90;99937.00;;;;5002221;28;20234;-73
2021/12/29 07:11:01;;;;;;;16.63;8.53;;;;;9.10;99942.00;;;;4991904;28;20775;-73
2021/12/29 07:13:47;;;;;;;19.43;9.43;;;;;9.10;99949.00;;;;4983228;28;20226;-73
2021/12/29 07:16:33;;;;;;;19.93;9.33;;;;;9.10;99960.00;;;;4999942;28;20611;-72
2021/12/29 07:19:21;;;;;;;17.33;8.63;;;;;9.00;99960.00;;;;4996803;28;20294;-72
2021/12/29 07:22:10;;;;;;;20.17;9.30;;;;;9.00;99968.00;;;;4997127;28;21029;-72
2021/12/29 07:24:56;;;;;;;18.37;8.43;;;;;9.00;99968.00;;;;4977215;28;20797;-71
2021/12/29 07:27:42;;;;;;;19.80;8.93;;;;;9.10;99960.00;;;;5002975;28;20235;-73
2021/12/29 07:30:28;;;;;;;19.90;9.97;;;;;9.10;99966.00;;;;4995381;28;20296;-74
2021/12/29 07:33:15;;;;;;;21.97;9.77;;;;;9.10;99968.00;;;;5008581;28;20246;-74
2021/12/29 07:36:01;;;;;;;21.17;9.50;;;;;9.10;99955.00;;;;5003678;28;20222;-74
2021/12/29 07:38:52;;;;;;;20.17;9.20;;;;;9.00;99971.00;;;;4984935;28;20305;-73
2021/12/29 07:41:39;;;;;;;21.13;10.33;;;;;9.10;99977.00;;;;5007592;28;20365;-74
2021/12/29 07:44:27;;;;;;;21.10;9.50;;;;;9.20;99973.00;;;;5018689;28;21152;-73
2021/12/29 07:47:14;;;;;;;24.97;10.90;;;;;9.20;99986.00;;;;5000841;28;20228;-72
2021/12/29 07:50:02;;;;;;;26.70;11.70;;;;;9.20;99988.00;;;;4984368;28;20223;-74
2021/12/29 07:53:08;;;;;;;19.17;9.73;;;;;9.20;100000.00;;;;5012571;28;20290;-74
2021/12/29 07:55:55;;;;;;;23.80;10.93;;;;;9.20;100004.00;;;;4990591;28;20231;-73
2021/12/29 07:58:42;;;;;;;26.50;10.63;;;;;9.20;100008.00;;;;5005087;28;20728;-72
2021/12/29 08:01:29;;;;;;;23.97;10.67;;;;;9.30;100010.00;;;;4986491;28;20236;-73
2021/12/29 08:04:16;;;;;;;24.33;10.40;;;;;9.30;100010.00;;;;4992208;28;20235;-73
2021/12/29 08:07:03;;;;;;;23.13;10.80;;;;;9.20;100008.00;;;;4993781;28;20348;-73
2021/12/29 08:09:49;;;;;;;22.33;10.53;;;;;9.20;100013.00;;;;4988428;28;20230;-73
2021/12/29 08:12:37;;;;;;;22.70;10.60;;;;;9.20;100007.00;;;;4988952;28;20791;-73
2021/12/29 08:15:23;;;;;;;19.33;9.83;;;;;9.10;100013.00;;;;5018745;28;20236;-71
2021/12/29 08:18:10;;;;;;;53.43;24.70;;;;;9.30;100023.00;;;;5013557;28;20275;-70
2021/12/29 08:20:56;;;;;;;19.87;10.03;;;;;9.30;100030.00;;;;5010315;28;20281;-73
2021/12/29 08:23:42;;;;;;;23.67;10.27;;;;;9.30;100034.00;;;;5012310;28;20232;-71
2021/12/29 08:26:29;;;;;;;23.87;10.30;;;;;9.50;100030.00;;;;4988696;28;20373;-72
2021/12/29 08:29:16;;;;;;;19.87;9.67;;;;;9.40;100028.00;;;;5012086;28;20243;-72
2021/12/29 08:32:05;;;;;;;18.17;9.70;;;;;9.50;100034.00;;;;5014994;28;20623;-71
2021/12/29 08:34:52;;;;;;;17.27;9.50;;;;;9.60;100033.00;;;;5003850;28;20231;-72
2021/12/29 08:37:38;;;;;;;20.37;10.27;;;;;9.50;100036.00;;;;5016035;28;20356;-71
2021/12/29 08:40:25;;;;;;;20.60;10.23;;;;;9.60;100029.00;;;;5009854;28;21109;-72
2021/12/29 08:43:13;;;;;;;19.97;9.87;;;;;9.50;100035.00;;;;4992361;28;20261;-72
2021/12/29 08:46:01;;;;;;;52.10;23.60;;;;;9.50;100036.00;;;;4987608;28;20224;-72
2021/12/29 08:48:47;;;;;;;36.13;17.00;;;;;9.50;100036.00;;;;4987698;28;20229;-75
2021/12/29 08:51:34;;;;;;;25.63;11.37;;;;;9.50;100041.00;;;;4988211;28;20259;-72
2021/12/29 08:54:20;;;;;;;20.80;10.77;;;;;9.50;100023.00;;;;5004644;28;20233;-75
2021/12/29 08:57:07;;;;;;;24.17;11.40;;;;;9.50;100037.00;;;;4979529;28;20224;-75
2021/12/29 08:59:53;;;;;;;21.30;11.07;;;;;9.40;100038.00;;;;4989175;28;20718;-73
2021/12/29 09:02:41;;;;;;;23.70;11.97;;;;;9.50;100037.00;;;;4995364;28;20308;-75
2021/12/29 09:05:28;;;;;;;28.37;12.33;;;;;9.40;100039.00;;;;5017561;28;20239;-73
2021/12/29 09:08:15;;;;;;;46.53;22.73;;;;;9.40;100034.00;;;;5003878;28;20234;-69
2021/12/29 09:11:01;;;;;;;38.13;17.43;;;;;9.30;100036.00;;;;4984035;28;20227;-75
2021/12/29 09:13:47;;;;;;;26.87;12.90;;;;;9.40;100031.00;;;;4987425;28;20279;-74
2021/12/29 09:16:34;;;;;;;26.47;13.00;;;;;9.40;100035.00;;;;4987898;28;20772;-74
2021/12/29 09:19:22;;;;;;;25.27;12.17;;;;;9.50;100048.00;;;;5016404;28;20619;-73
2021/12/29 09:22:09;;;;;;;24.93;12.40;;;;;9.50;100061.00;;;;4987277;28;20236;-75
2021/12/29 09:24:56;;;;;;;28.13;13.77;;;;;9.50;100059.00;;;;4986978;28;20236;-75
2021/12/29 09:27:47;;;;;;;26.50;12.70;;;;;9.50;100047.00;;;;5011142;28;20286;-74
2021/12/29 09:30:36;;;;;;;26.93;12.23;;;;;9.60;100060.00;;;;4985795;28;20235;-73
2021/12/29 09:33:23;;;;;;;29.10;12.73;;;;;9.60;100066.00;;;;4987915;28;20232;-74
2021/12/29 09:36:11;;;;;;;29.10;13.67;;;;;9.50;100073.00;;;;5013496;28;20254;-76
2021/12/29 09:38:57;;;;;;;25.47;13.20;;;;;9.50;100066.00;;;;4986443;28;20233;-75
2021/12/29 09:41:44;;;;;;;27.73;13.30;;;;;9.40;100077.00;;;;4979232;28;20234;-75
2021/12/29 09:44:31;;;;;;;26.93;12.70;;;;;9.40;100084.00;;;;4986732;28;20749;-71
2021/12/29 09:47:18;;;;;;;26.80;13.63;;;;;9.50;100090.00;;;;4990881;28;20239;-75
2021/12/29 09:50:08;;;;;;;28.27;13.43;;;;;9.50;100087.00;;;;4982131;28;20229;-75
2021/12/29 09:52:56;;;;;;;34.53;13.63;;;;;9.60;100084.00;;;;4985650;28;20885;-75
2021/12/29 09:55:44;;;;;;;27.63;13.17;;;;;9.60;100078.00;;;;5010928;28;20234;-74
2021/12/29 09:58:30;;;;;;;25.90;13.83;;;;;9.60;100074.00;;;;4990947;28;20233;-74
2021/12/29 10:01:17;;;;;;;34.03;14.63;;;;;9.70;100070.00;;;;4989119;28;20236;-74
2021/12/29 10:04:05;;;;;;;31.77;14.50;;;;;9.70;100075.00;;;;4986830;28;20315;-70
2021/12/29 10:06:51;;;;;;;31.93;14.80;;;;;9.70;100083.00;;;;4987154;28;20275;-75
2021/12/29 10:09:39;;;;;;;33.10;14.50;;;;;9.90;100082.00;;;;4987237;28;20235;-73
2021/12/29 10:12:27;;;;;;;110.13;52.83;;;;;9.80;100089.00;;;;5009626;28;20254;-72
2021/12/29 10:15:15;;;;;;;41.10;17.90;;;;;9.90;100074.00;;;;5010405;28;20288;-72
2021/12/29 10:18:06;;;;;;;31.07;14.50;;;;;9.90;100089.00;;;;4985952;28;20775;-70
2021/12/29 10:20:56;;;;;;;36.43;16.10;;;;;10.00;100091.00;;;;4985172;28;20229;-72
2021/12/29 10:23:46;;;;;;;30.03;14.80;;;;;9.90;100078.00;;;;4971036;28;20222;-71
2021/12/29 10:26:57;;;;;;;33.60;15.63;;;;;9.90;100086.00;;;;4979925;28;20352;-72
2021/12/29 10:29:44;;;;;;;32.63;15.13;;;;;9.90;100097.00;;;;4983925;28;20228;-71
2021/12/29 10:32:30;;;;;;;29.23;14.20;;;;;9.80;100081.00;;;;4984150;28;20287;-69
2021/12/29 10:35:21;;;;;;;30.00;14.27;;;;;9.80;100086.00;;;;5003732;28;20230;-73
2021/12/29 10:38:14;;;;;;;36.73;14.67;;;;;9.80;100093.00;;;;4979547;28;20251;-72
2021/12/29 10:41:03;;;;;;;32.77;16.00;;;;;9.80;100082.00;;;;4983457;28;20236;-73
2021/12/29 10:43:58;;;;;;;31.50;15.03;;;;;9.80;100069.00;;;;4983341;28;20238;-72
2021/12/29 10:46:44;;;;;;;28.57;13.90;;;;;9.80;100081.00;;;;4980910;28;20226;-68
2021/12/29 10:49:32;;;;;;;36.63;15.63;;;;;9.90;100082.00;;;;4978881;28;20226;-72
2021/12/29 10:52:30;;;;;;;39.77;16.17;;;;;9.90;100087.00;;;;4980984;28;20233;-71
2021/12/29 10:55:19;;;;;;;36.63;15.70;;;;;9.90;100092.00;;;;4983480;28;20237;-68
2021/12/29 10:58:07;;;;;;;30.60;15.33;;;;;10.00;100089.00;;;;4976913;28;20255;-70
2021/12/29 11:01:08;;;;;;;34.30;16.53;;;;;10.20;100084.00;;;;4994361;28;20366;-70
2021/12/29 11:03:58;;;;;;;35.40;15.77;;;;;10.20;100075.00;;;;4989652;28;20233;-71
2021/12/29 11:06:46;;;;;;;32.70;15.57;;;;;10.20;100079.00;;;;4995982;28;20233;-70
2021/12/29 11:09:34;;;;;;;36.03;17.17;;;;;10.30;100062.00;;;;4996373;28;20240;-72
2021/12/29 11:12:23;;;;;;;33.80;16.57;;;;;10.20;100066.00;;;;5007201;28;20878;-69
2021/12/29 11:15:16;;;;;;;37.37;17.07;;;;;10.20;100074.00;;;;5006892;28;20241;-72
2021/12/29 11:18:07;;;;;;;34.03;15.53;;;;;10.40;100070.00;;;;4986592;28;20265;-70
2021/12/29 11:20:55;;;;;;;244.30;106.60;;;;;10.30;100060.00;;;;4981230;28;20307;-69
2021/12/29 11:23:42;;;;;;;41.10;19.17;;;;;10.20;100068.00;;;;4979520;28;20230;-70
2021/12/29 11:26:29;;;;;;;34.33;15.17;;;;;10.40;100070.00;;;;4993318;28;20260;-72
2021/12/29 11:29:18;;;;;;;35.10;15.93;;;;;10.50;100070.00;;;;5015349;28;20801;-70
2021/12/29 11:32:07;;;;;;;33.97;17.13;;;;;10.30;100066.00;;;;5014959;28;20284;-72
2021/12/29 11:35:09;;;;;;;34.17;14.83;;;;;10.30;100069.00;;;;5001510;28;20753;-71
2021/12/29 11:37:59;;;;;;;31.87;14.97;;;;;10.30;100056.00;;;;4982396;28;20237;-72
2021/12/29 11:40:48;;;;;;;35.83;15.97;;;;;10.30;100068.00;;;;4978530;28;20261;-68
2021/12/29 11:43:35;;;;;;;30.90;15.03;;;;;10.40;100092.00;;;;4979757;28;20275;-70
2021/12/29 11:46:24;;;;;;;29.97;15.57;;;;;10.50;100078.00;;;;5006923;28;20230;-71
2021/12/29 11:49:10;;;;;;;27.17;13.90;;;;;10.50;100092.00;;;;5014606;28;20296;-71
2021/12/29 11:52:03;;;;;;;27.90;14.13;;;;;10.20;100093.00;;;;4986379;28;20369;-71
2021/12/29 11:55:04;;;;;;;27.60;14.50;;;;;10.30;100094.00;;;;4986043;28;20230;-69
2021/12/29 11:57:51;;;;;;;27.30;13.27;;;;;10.40;100107.00;;;;4983693;28;20311;-72
2021/12/29 12:00:39;;;;;;;26.00;14.10;;;;;10.30;100102.00;;;;4986162;28;20243;-70
2021/12/29 12:03:25;;;;;;;24.07;13.17;;;;;10.40;100091.00;;;;5005913;28;20235;-70
2021/12/29 12:06:23;;;;;;;29.90;13.90;;;;;10.40;100101.00;;;;4988815;28;20304;-72
2021/12/29 12:09:15;;;;;;;22.73;12.37;;;;;10.30;100105.00;;;;4988962;28;20250;-71
2021/12/29 12:12:03;;;;;;;22.97;12.07;;;;;10.30;100082.00;;;;4989687;28;20653;-74
2021/12/29 12:14:51;;;;;;;23.27;12.27;;;;;10.40;100091.00;;;;4985489;28;20718;-68
2021/12/29 12:17:38;;;;;;;19.17;11.40;;;;;10.30;100089.00;;;;4986169;28;20233;-72
2021/12/29 12:20:24;;;;;;;17.83;10.90;;;;;10.40;100082.00;;;;5002997;28;20297;-68
2021/12/29 12:23:21;;;;;;;22.40;12.53;;;;;10.40;100103.00;;;;4989705;28;20769;-73
2021/12/29 12:26:11;;;;;;;26.97;14.13;;;;;10.40;100083.00;;;;4985463;28;20242;-72
2021/12/29 12:28:57;;;;;;;19.13;10.47;;;;;10.30;100069.00;;;;4991755;28;20245;-70
2021/12/29 12:31:58;;;;;;;22.77;10.70;;;;;10.20;100082.00;;;;4988562;28;20234;-72
2021/12/29 12:34:51;;;;;;;21.87;10.27;;;;;10.10;100091.00;;;;4985696;28;20285;-73
2021/12/29 12:37:39;;;;;;;18.53;9.87;;;;;10.10;100089.00;;;;4973938;28;20238;-72
2021/12/29 12:40:27;;;;;;;14.97;9.37;;;;;10.10;100078.00;;;;4983692;28;20230;-74
2021/12/29 12:43:17;;;;;;;18.37;10.20;;;;;10.00;100081.00;;;;5013446;28;20238;-75
2021/12/29 12:46:05;;;;;;;17.90;10.43;;;;;9.90;100077.00;;;;5000030;28;21270;-69
2021/12/29 12:48:52;;;;;;;18.47;9.87;;;;;9.90;100078.00;;;;4998334;28;20226;-74
2021/12/29 12:51:38;;;;;;;16.47;9.23;;;;;9.90;100085.00;;;;5004839;28;20613;-71
2021/12/29 12:54:28;;;;;;;13.13;7.93;;;;;9.80;100082.00;;;;5000980;28;20800;-72
2021/12/29 12:57:15;;;;;;;17.33;8.73;;;;;9.80;100064.00;;;;4996930;28;20233;-73
2021/12/29 13:00:19;;;;;;;17.13;8.93;;;;;9.80;100080.00;;;;4998473;28;20314;-73
2021/12/29 13:03:08;;;;;;;15.57;9.20;;;;;9.80;100074.00;;;;4985283;28;20233;-72
2021/12/29 13:05:57;;;;;;;14.93;9.60;;;;;9.80;100067.00;;;;5001179;28;20243;-71
2021/12/29 13:08:45;;;;;;;17.17;9.30;;;;;9.80;100059.00;;;;4997402;28;20294;-72
2021/12/29 13:11:33;;;;;;;14.80;9.40;;;;;9.80;100046.00;;;;5004795;28;20238;-72
2021/12/29 13:14:21;;;;;;;14.07;9.10;;;;;9.70;100049.00;;;;5010551;28;20264;-71
2021/12/29 13:17:15;;;;;;;14.40;8.53;;;;;9.70;100042.00;;;;4997072;28;21015;-71
2021/12/29 13:20:02;;;;;;;14.80;8.77;;;;;9.70;100033.00;;;;4979573;28;20325;-71
2021/12/29 13:22:49;;;;;;;14.80;9.07;;;;;9.80;100027.00;;;;4979431;28;20240;-71
2021/12/29 13:25:39;;;;;;;19.23;10.63;;;;;9.80;100043.00;;;;4982442;28;20242;-71
2021/12/29 13:28:27;;;;;;;15.07;8.73;;;;;9.70;100034.00;;;;4981596;28;20787;-72
2021/12/29 13:31:16;;;;;;;14.77;9.47;;;;;9.70;100030.00;;;;5009070;28;20302;-70
2021/12/29 13:34:04;;;;;;;29.87;16.03;;;;;9.80;100036.00;;;;4972468;28;20321;-74
2021/12/29 13:36:50;;;;;;;20.73;9.63;;;;;9.80;100038.00;;;;4987661;28;20248;-76
2021/12/29 13:39:37;;;;;;;19.20;9.53;;;;;9.70;100017.00;;;;5000631;28;20788;-74
2021/12/29 13:42:24;;;;;;;18.27;10.33;;;;;9.70;100017.00;;;;5004204;28;20282;-72
2021/12/29 13:45:23;;;;;;;18.20;9.60;;;;;9.70;100020.00;;;;5010400;28;20653;-73
2021/12/29 13:48:15;;;;;;;17.57;9.87;;;;;9.80;100012.00;;;;4994758;28;20769;-73
2021/12/29 13:51:06;;;;;;;15.60;9.60;;;;;9.80;100020.00;;;;4983499;28;20904;-72
2021/12/29 13:53:54;;;;;;;20.10;9.57;;;;;9.70;100018.00;;;;4983020;28;20723;-68
2021/12/29 13:56:42;;;;;;;14.97;9.30;;;;;9.70;100027.00;;;;4983892;28;20237;-71
2021/12/29 13:59:29;;;;;;;15.13;9.00;;;;;9.70;100036.00;;;;4981426;28;20237;-72